Main page
METAR-TAF:

METAR-TAF

Airports :

Killarney, Ireland

Kerry Airport

latitude: 52-10-51N, longitude: 9-31-26W, elevation: 34 m

Current weather observation

The report was made 7 hours and 43 minutes ago, at 18:30 UTC
Wind 6 kt from the Northwest, varying between West and North/Northeast
Temperature 15°C
Humidity 82%
Pressure 1001 hPa
Visibility 10 km or more
Few clouds at a height of 2400 ft
Scattered clouds at a height of 3500 ft

METAR: EIKY 281830Z 32006KT 280V020 9999 FEW024 SCT035 15/12 Q1001

Time: 03:13 (02:13 UTC)

Forecast

The report was made 9 hours and 13 minutes ago, at 17:00 UTC
Forecast valid from 28 at 18 UTC to 28 at 21 UTC
Wind 8 kt from the North/Northwest
Visibility 10 km or more
Scattered clouds at a height of 1800 ft
Broken clouds at a height of 3000 ft

TAF: EIKY 281700Z 2818/2821 33008KT 9999 SCT018 BKN030

Weather observations and forecasts of more than 4000 airports (METAR and TAF reports).

The available stations are represented by yellow and red dots on the map.

Hover mouse over dot to see the name of the station.

Then click to see weather observations and forecasts.

To change the map : click on the green buttons with a black cross to zoom in, on the green button with a dash to zoom out, or on the green arrows for adjacent maps.


METAR-TAF: